Time,TemperatureF,DewpointF,PressureIn,WindDirection,WindDirectionDegrees,WindSpeedMPH,WindSpeedGustMPH,Humidity,HourlyPrecipIn,Conditions,Clouds,dailyrainin,SoftwareType,DateUTC
2015-02-27 00:00:00,0.6,-5.7,30.67,NW,307,0.0,18.0,74,0.00,,,0.00,Wunderground v.1.15,2015-02-27 06:00:00,
2015-02-27 00:05:00,0.5,-5.8,30.67,NW,316,0.0,18.0,74,0.00,,,0.00,Wunderground v.1.15,2015-02-27 06:05:00,
2015-02-27 00:11:00,0.4,-5.9,30.67,NW,314,0.0,18.0,74,0.00,,,0.00,Wunderground v.1.15,2015-02-27 06:11:00,
2015-02-27 00:17:00,0.3,-6.0,30.67,NW,322,0.0,18.0,74,0.00,,,0.00,Wunderground v.1.15,2015-02-27 06:17:00,
2015-02-27 00:23:00,0.3,-6.0,30.67,NNW,327,0.0,18.0,74,0.00,,,0.00,Wunderground v.1.15,2015-02-27 06:23:00,
2015-02-27 00:29:00,0.2,-6.1,30.67,NW,321,0.0,18.0,74,0.00,,,0.00,Wunderground v.1.15,2015-02-27 06:29:00,
2015-02-27 00:35:00,0.1,-6.2,30.67,NW,313,0.0,18.0,74,0.00,,,0.00,Wunderground v.1.15,2015-02-27 06:35:00,
2015-02-27 00:41:00,0.0,-6.0,30.67,NW,311,0.0,18.0,75,0.00,,,0.00,Wunderground v.1.15,2015-02-27 06:41:00,
2015-02-27 00:47:00,-0.1,-6.1,30.67,NW,326,0.0,18.0,75,0.00,,,0.00,Wunderground v.1.15,2015-02-27 06:47:00,
2015-02-27 00:53:00,-0.2,-6.2,30.67,NW,311,0.0,18.0,75,0.00,,,0.00,Wunderground v.1.15,2015-02-27 06:53:00,
2015-02-27 00:58:00,-0.5,-6.5,30.67,WNW,294,0.0,18.0,75,0.00,,,0.00,Wunderground v.1.15,2015-02-27 06:58:00,
2015-02-27 01:04:00,-0.8,-6.5,30.67,WNW,299,0.0,18.0,76,0.00,,,0.00,Wunderground v.1.15,2015-02-27 07:04:00,
2015-02-27 01:10:00,-1.1,-6.8,30.67,WNW,299,0.0,18.0,76,0.00,,,0.00,Wunderground v.1.15,2015-02-27 07:10:00,
2015-02-27 01:16:00,-1.4,-7.1,30.68,WNW,299,0.0,18.0,76,0.00,,,0.00,Wunderground v.1.15,2015-02-27 07:16:00,
2015-02-27 01:22:00,-1.6,-7.1,30.68,WNW,283,0.0,18.0,77,0.00,,,0.00,Wunderground v.1.15,2015-02-27 07:22:00,
2015-02-27 01:28:00,-1.8,-7.3,30.68,WNW,283,0.0,18.0,77,0.00,,,0.00,Wunderground v.1.15,2015-02-27 07:28:00,
2015-02-27 01:34:00,-2.0,-7.4,30.68,West,277,0.0,18.0,77,0.00,,,0.00,Wunderground v.1.15,2015-02-27 07:34:00,
2015-02-27 01:39:00,-2.1,-7.3,30.67,West,279,0.0,18.0,78,0.00,,,0.00,Wunderground v.1.15,2015-02-27 07:39:00,
2015-02-27 01:45:00,-2.2,-7.4,30.68,West,279,0.0,18.0,78,0.00,,,0.00,Wunderground v.1.15,2015-02-27 07:45:00,
2015-02-27 01:51:00,-2.2,-7.4,30.68,West,277,0.0,18.0,78,0.00,,,0.00,Wunderground v.1.15,2015-02-27 07:51:00,
2015-02-27 01:57:00,-2.3,-7.2,30.68,West,269,0.0,18.0,79,0.00,,,0.00,Wunderground v.1.15,2015-02-27 07:57:00,
2015-02-27 02:03:00,-2.3,-7.2,30.68,West,273,0.0,18.0,79,0.00,,,0.00,Wunderground v.1.15,2015-02-27 08:03:00,
2015-02-27 02:09:00,-2.5,-7.4,30.68,West,264,0.0,18.0,79,0.00,,,0.00,Wunderground v.1.15,2015-02-27 08:09:00,
2015-02-27 02:15:00,-2.5,-7.4,30.68,West,267,0.0,18.0,79,0.00,,,0.00,Wunderground v.1.15,2015-02-27 08:15:00,
2015-02-27 02:21:00,-2.7,-7.6,30.68,WSW,249,0.0,18.0,79,0.00,,,0.00,Wunderground v.1.15,2015-02-27 08:21:00,
2015-02-27 02:25:00,-2.6,-7.2,30.68,WSW,258,0.0,18.0,80,0.00,,,0.00,Wunderground v.1.15,2015-02-27 08:25:00,
2015-02-27 02:30:00,-2.7,-7.3,30.68,WSW,240,0.0,18.0,80,0.00,,,0.00,Wunderground v.1.15,2015-02-27 08:30:00,
2015-02-27 02:36:00,-2.9,-7.5,30.68,SW,228,0.0,18.0,80,0.00,,,0.00,Wunderground v.1.15,2015-02-27 08:36:00,
2015-02-27 02:42:00,-3.1,-7.5,30.68,WSW,237,0.0,18.0,81,0.00,,,0.00,Wunderground v.1.15,2015-02-27 08:42:00,
2015-02-27 02:48:00,-3.3,-7.7,30.68,WSW,249,0.0,18.0,81,0.00,,,0.00,Wunderground v.1.15,2015-02-27 08:48:00,
2015-02-27 02:54:00,-3.3,-7.7,30.68,WSW,249,0.0,18.0,81,0.00,,,0.00,Wunderground v.1.15,2015-02-27 08:54:00,
2015-02-27 03:00:00,-3.3,-7.7,30.68,WSW,258,0.0,18.0,81,0.00,,,0.00,Wunderground v.1.15,2015-02-27 09:00:00,
2015-02-27 03:05:00,-3.3,-7.4,30.68,West,261,0.0,18.0,82,0.00,,,0.00,Wunderground v.1.15,2015-02-27 09:05:00,
2015-02-27 03:11:00,-3.3,-7.4,30.67,WSW,258,0.0,18.0,82,0.00,,,0.00,Wunderground v.1.15,2015-02-27 09:11:00,
2015-02-27 03:16:00,-3.2,-7.3,30.67,WSW,249,0.0,18.0,82,0.00,,,0.00,Wunderground v.1.15,2015-02-27 09:16:00,
2015-02-27 03:22:00,-3.2,-7.3,30.67,WSW,252,0.0,18.0,82,0.00,,,0.00,Wunderground v.1.15,2015-02-27 09:22:00,
2015-02-27 03:28:00,-3.1,-7.2,30.67,West,273,0.0,18.0,82,0.00,,,0.00,Wunderground v.1.15,2015-02-27 09:28:00,
2015-02-27 03:34:00,-3.1,-7.2,30.67,WSW,250,0.0,18.0,82,0.00,,,0.00,Wunderground v.1.15,2015-02-27 09:34:00,
2015-02-27 03:40:00,-3.1,-7.2,30.67,WSW,250,0.0,18.0,82,0.00,,,0.00,Wunderground v.1.15,2015-02-27 09:40:00,
2015-02-27 03:47:00,-3.1,-7.2,30.67,WSW,245,0.0,18.0,82,0.00,,,0.00,Wunderground v.1.15,2015-02-27 09:47:00,
2015-02-27 03:53:00,-3.1,-7.5,30.67,WSW,245,0.0,18.0,81,0.00,,,0.00,Wunderground v.1.15,2015-02-27 09:53:00,
2015-02-27 03:58:00,-3.3,-7.7,30.68,WSW,247,0.0,18.0,81,0.00,,,0.00,Wunderground v.1.15,2015-02-27 09:58:00,
2015-02-27 04:04:00,-3.7,-8.1,30.68,SW,220,0.0,18.0,81,0.00,,,0.00,Wunderground v.1.15,2015-02-27 10:04:00,
2015-02-27 04:10:00,-3.9,-8.0,30.68,WSW,239,0.0,18.0,82,0.00,,,0.00,Wunderground v.1.15,2015-02-27 10:10:00,
2015-02-27 04:16:00,-4.0,-8.1,30.68,WSW,245,0.0,18.0,82,0.00,,,0.00,Wunderground v.1.15,2015-02-27 10:16:00,
2015-02-27 04:22:00,-4.0,-7.9,30.68,WSW,249,0.0,18.0,83,0.00,,,0.00,Wunderground v.1.15,2015-02-27 10:22:00,
2015-02-27 04:28:00,-4.0,-7.9,30.68,WSW,249,0.0,18.0,83,0.00,,,0.00,Wunderground v.1.15,2015-02-27 10:28:00,
2015-02-27 04:34:00,-3.8,-7.7,30.68,West,275,0.0,18.0,83,0.00,,,0.00,Wunderground v.1.15,2015-02-27 10:34:00,
2015-02-27 04:40:00,-3.7,-7.6,30.68,WSW,258,0.0,18.0,83,0.00,,,0.00,Wunderground v.1.15,2015-02-27 10:40:00,
2015-02-27 04:46:00,-3.7,-7.8,30.68,WSW,256,0.0,18.0,82,0.00,,,0.00,Wunderground v.1.15,2015-02-27 10:46:00,
2015-02-27 04:51:00,-3.7,-7.8,30.68,WSW,255,0.0,18.0,82,0.00,,,0.00,Wunderground v.1.15,2015-02-27 10:51:00,
2015-02-27 04:57:00,-3.8,-7.9,30.68,WNW,286,0.0,18.0,82,0.00,,,0.00,Wunderground v.1.15,2015-02-27 10:57:00,
2015-02-27 05:03:00,-3.8,-7.9,30.68,WSW,247,0.0,18.0,82,0.00,,,0.00,Wunderground v.1.15,2015-02-27 11:03:00,
2015-02-27 05:09:00,-4.0,-8.1,30.68,WSW,239,0.0,18.0,82,0.00,,,0.00,Wunderground v.1.15,2015-02-27 11:09:00,
2015-02-27 05:15:00,-4.2,-8.1,30.68,WSW,249,0.0,18.0,83,0.00,,,0.00,Wunderground v.1.15,2015-02-27 11:15:00,
2015-02-27 05:21:00,-4.4,-8.3,30.69,SW,229,0.0,18.0,83,0.00,,,0.00,Wunderground v.1.15,2015-02-27 11:21:00,
2015-02-27 05:27:00,-4.6,-8.4,30.69,SW,233,0.0,18.0,83,0.00,,,0.00,Wunderground v.1.15,2015-02-27 11:27:00,
2015-02-27 05:32:00,-4.8,-8.6,30.69,SW,228,0.0,18.0,83,0.00,,,0.00,Wunderground v.1.15,2015-02-27 11:32:00,
2015-02-27 05:38:00,-5.0,-8.8,30.69,SW,222,0.0,18.0,83,0.00,,,0.00,Wunderground v.1.15,2015-02-27 11:38:00,
2015-02-27 05:44:00,-5.3,-9.1,30.69,SSW,213,0.0,18.0,83,0.00,,,0.00,Wunderground v.1.15,2015-02-27 11:44:00,
2015-02-27 05:51:00,-5.5,-9.1,30.70,SW,232,0.0,18.0,84,0.00,,,0.00,Wunderground v.1.15,2015-02-27 11:51:00,
2015-02-27 05:57:00,-5.5,-9.1,30.70,SW,229,0.0,18.0,84,0.00,,,0.00,Wunderground v.1.15,2015-02-27 11:57:00,
2015-02-27 06:02:00,-5.5,-9.1,30.70,SW,232,0.0,18.0,84,0.00,,,0.00,Wunderground v.1.15,2015-02-27 12:02:00,
2015-02-27 06:07:00,-5.5,-9.1,30.70,SW,236,0.0,18.0,84,0.00,,,0.00,Wunderground v.1.15,2015-02-27 12:07:00,
2015-02-27 06:13:00,-5.5,-9.1,30.70,WSW,239,0.0,18.0,84,0.00,,,0.00,Wunderground v.1.15,2015-02-27 12:13:00,
2015-02-27 06:18:00,-5.6,-9.2,30.70,WSW,251,0.0,18.0,84,0.00,,,0.00,Wunderground v.1.15,2015-02-27 12:18:00,
2015-02-27 06:25:00,-5.6,-9.2,30.70,WSW,249,0.0,18.0,84,0.00,,,0.00,Wunderground v.1.15,2015-02-27 12:25:00,
2015-02-27 06:30:00,-5.7,-9.3,30.70,SW,236,0.0,18.0,84,0.00,,,0.00,Wunderground v.1.15,2015-02-27 12:30:00,
2015-02-27 06:36:00,-5.9,-9.5,30.70,SW,234,0.0,18.0,84,0.00,,,0.00,Wunderground v.1.15,2015-02-27 12:36:00,
2015-02-27 06:42:00,-6.0,-9.6,30.70,SW,219,0.0,18.0,84,0.00,,,0.00,Wunderground v.1.15,2015-02-27 12:42:00,
2015-02-27 06:48:00,-6.2,-9.5,30.70,SW,220,0.0,18.0,85,0.00,,,0.00,Wunderground v.1.15,2015-02-27 12:48:00,
2015-02-27 06:54:00,-6.2,-9.5,30.70,SW,224,0.0,18.0,85,0.00,,,0.00,Wunderground v.1.15,2015-02-27 12:54:00,
2015-02-27 07:00:00,-6.3,-9.6,30.70,SW,224,0.0,18.0,85,0.00,,,0.00,Wunderground v.1.15,2015-02-27 13:00:00,
2015-02-27 07:05:00,-6.3,-9.6,30.70,SW,219,0.0,18.0,85,0.00,,,0.00,Wunderground v.1.15,2015-02-27 13:05:00,
2015-02-27 07:11:00,-6.3,-9.6,30.70,SW,232,0.0,18.0,85,0.00,,,0.00,Wunderground v.1.15,2015-02-27 13:11:00,
2015-02-27 07:17:00,-6.2,-9.5,30.70,SW,232,0.0,18.0,85,0.00,,,0.00,Wunderground v.1.15,2015-02-27 13:17:00,
2015-02-27 07:23:00,-5.9,-9.2,30.70,SW,225,0.0,18.0,85,0.00,,,0.00,Wunderground v.1.15,2015-02-27 13:23:00,
2015-02-27 07:29:00,-5.6,-8.9,30.70,WSW,250,0.0,18.0,85,0.00,,,0.00,Wunderground v.1.15,2015-02-27 13:29:00,
2015-02-27 07:35:00,-5.2,-8.6,30.70,WSW,240,0.0,18.0,85,0.00,,,0.00,Wunderground v.1.15,2015-02-27 13:35:00,
2015-02-27 07:41:00,-4.9,-8.5,30.70,WSW,243,0.0,18.0,84,0.00,,,0.00,Wunderground v.1.15,2015-02-27 13:41:00,
2015-02-27 07:47:00,-4.5,-8.1,30.70,WSW,248,0.0,18.0,84,0.00,,,0.00,Wunderground v.1.15,2015-02-27 13:47:00,
2015-02-27 07:53:00,-4.1,-7.7,30.71,SW,225,0.0,18.0,84,0.00,,,0.00,Wunderground v.1.15,2015-02-27 13:53:00,
2015-02-27 07:58:00,-3.7,-7.6,30.71,WSW,244,0.0,18.0,83,0.00,,,0.00,Wunderground v.1.15,2015-02-27 13:58:00,
2015-02-27 08:04:00,-3.4,-7.3,30.71,WSW,251,0.0,18.0,83,0.00,,,0.00,Wunderground v.1.15,2015-02-27 14:04:00,
2015-02-27 08:09:00,-3.0,-6.9,30.71,WSW,254,0.0,18.0,83,0.00,,,0.00,Wunderground v.1.15,2015-02-27 14:09:00,
2015-02-27 08:15:00,-2.7,-6.8,30.71,WSW,256,0.0,18.0,82,0.00,,,0.00,Wunderground v.1.15,2015-02-27 14:15:00,
2015-02-27 08:21:00,-2.2,-6.3,30.72,WSW,239,0.0,18.0,82,0.00,,,0.00,Wunderground v.1.15,2015-02-27 14:21:00,
2015-02-27 08:27:00,-1.8,-6.0,30.71,SW,236,0.0,18.0,82,0.00,,,0.00,Wunderground v.1.15,2015-02-27 14:27:00,
2015-02-27 08:33:00,-1.2,-5.6,30.72,SW,218,0.0,18.0,81,0.00,,,0.00,Wunderground v.1.15,2015-02-27 14:33:00,
2015-02-27 08:38:00,-0.7,-5.1,30.72,SW,228,0.0,18.0,81,0.00,,,0.00,Wunderground v.1.15,2015-02-27 14:38:00,
2015-02-27 08:44:00,-0.5,-5.2,30.72,SW,224,0.0,18.0,80,0.00,,,0.00,Wunderground v.1.15,2015-02-27 14:44:00,
2015-02-27 08:49:00,-0.1,-4.8,30.72,SSW,197,0.0,18.0,80,0.00,,,0.00,Wunderground v.1.15,2015-02-27 14:49:00,
2015-02-27 08:55:00,0.6,-4.1,30.72,SSW,199,0.0,18.0,80,0.00,,,0.00,Wunderground v.1.15,2015-02-27 14:55:00,
2015-02-27 09:01:00,0.9,-4.1,30.72,SSW,208,0.0,18.0,79,0.00,,,0.00,Wunderground v.1.15,2015-02-27 15:01:00,
2015-02-27 09:07:00,1.4,-3.6,30.72,South,191,0.0,18.0,79,0.00,,,0.00,Wunderground v.1.15,2015-02-27 15:07:00,
2015-02-27 09:12:00,1.7,-3.6,30.72,WSW,247,0.0,18.0,78,0.00,,,0.00,Wunderground v.1.15,2015-02-27 15:12:00,
2015-02-27 09:19:00,1.8,-3.5,30.72,SW,236,0.0,18.0,78,0.00,,,0.00,Wunderground v.1.15,2015-02-27 15:19:00,
2015-02-27 09:25:00,2.3,-3.0,30.72,SW,232,0.0,18.0,78,0.00,,,0.00,Wunderground v.1.15,2015-02-27 15:25:00,
2015-02-27 09:31:00,2.6,-2.7,30.72,West,268,0.0,18.0,78,0.00,,,0.00,Wunderground v.1.15,2015-02-27 15:31:00,